createdAt,value
2022-08-28T00:00:59.473Z,1.83
2022-08-28T00:03:30.317Z,1.08
2022-08-28T00:06:02.130Z,0.70
2022-08-28T00:08:33.796Z,1.38
2022-08-28T00:11:04.410Z,0.88
2022-08-28T00:13:35.212Z,0.77
2022-08-28T00:16:05.701Z,1.58
2022-08-28T00:18:36.076Z,1.33
2022-08-28T00:21:07.237Z,1.40
2022-08-28T00:23:42.766Z,0.70
2022-08-28T00:26:34.466Z,1.20
2022-08-28T00:29:04.794Z,1.20
2022-08-28T00:31:36.451Z,1.50
2022-08-28T00:34:07.481Z,2.40
2022-08-28T00:36:39.700Z,2.25
2022-08-28T00:39:11.633Z,2.90
2022-08-28T00:41:43.789Z,1.52
2022-08-28T00:44:25.288Z,1.98
2022-08-28T00:46:57.829Z,11.93
2022-08-28T00:49:35.024Z,44.90
2022-08-28T00:52:12.275Z,45.83
2022-08-28T00:54:59.588Z,48.10
2022-08-28T00:57:43.148Z,46.83
2022-08-28T01:00:16.511Z,35.28
2022-08-28T01:02:47.009Z,32.33
2022-08-28T01:05:18.858Z,26.08
2022-08-28T01:07:49.496Z,22.67
2022-08-28T01:10:24.241Z,19.77
2022-08-28T01:12:56.816Z,20.80
2022-08-28T01:15:32.760Z,14.60
2022-08-28T01:18:08.717Z,10.52
2022-08-28T01:20:42.685Z,7.13
2022-08-28T01:23:31.723Z,3.03
2022-08-28T01:26:02.620Z,2.97
2022-08-28T01:28:41.828Z,2.67
2022-08-28T01:31:16.037Z,2.30
2022-08-28T01:33:48.290Z,2.35
2022-08-28T01:36:20.037Z,3.00
2022-08-28T01:38:59.080Z,2.20
2022-08-28T01:41:34.267Z,2.70
2022-08-28T01:44:04.765Z,2.85
2022-08-28T01:46:35.625Z,2.88
2022-08-28T01:49:07.305Z,4.32
2022-08-28T01:51:38.007Z,3.20
2022-08-28T01:54:09.977Z,4.18
2022-08-28T01:56:43.489Z,4.05
2022-08-28T01:59:16.740Z,4.28
2022-08-28T02:01:47.810Z,3.67
2022-08-28T02:04:19.575Z,2.58
2022-08-28T02:06:54.127Z,3.30
2022-08-28T02:09:25.536Z,3.10
2022-08-28T02:11:56.302Z,3.88
2022-08-28T02:14:26.577Z,3.83
2022-08-28T02:16:58.691Z,4.05
2022-08-28T02:19:28.938Z,4.88
2022-08-28T02:21:59.503Z,6.30
2022-08-28T02:24:29.779Z,6.45
2022-08-28T02:27:00.196Z,6.43
2022-08-28T02:29:30.710Z,7.90
2022-08-28T02:32:01.158Z,7.15
2022-08-28T02:34:31.471Z,8.85
2022-08-28T02:37:01.774Z,9.38
2022-08-28T02:39:32.536Z,8.98
2022-08-28T02:42:02.728Z,10.85
2022-08-28T02:44:33.222Z,8.75
2022-08-28T02:47:03.460Z,6.75
2022-08-28T02:49:36.214Z,7.68
2022-08-28T02:52:08.824Z,8.88
2022-08-28T02:54:43.145Z,7.85
2022-08-28T02:57:13.367Z,6.32
2022-08-28T02:59:46.063Z,7.22
2022-08-28T03:02:16.474Z,6.47
2022-08-28T03:04:46.793Z,6.18
2022-08-28T03:07:18.977Z,7.30
2022-08-28T03:09:49.755Z,6.32
2022-08-28T03:12:20.107Z,6.63
2022-08-28T03:14:50.370Z,6.90
2022-08-28T03:17:21.466Z,6.32
2022-08-28T03:19:52.444Z,8.52
2022-08-28T03:22:43.174Z,7.00
2022-08-28T03:25:14.592Z,9.20
2022-08-28T03:27:44.889Z,12.02
2022-08-28T03:30:17.457Z,12.15
2022-08-28T03:32:47.987Z,13.48
2022-08-28T03:35:18.957Z,13.57
2022-08-28T03:37:49.539Z,13.38
2022-08-28T03:40:20.573Z,13.60
2022-08-28T03:42:53.490Z,12.70
2022-08-28T03:45:24.732Z,11.05
2022-08-28T03:47:56.028Z,11.55
2022-08-28T03:50:26.570Z,9.48
2022-08-28T03:52:59.588Z,7.53
2022-08-28T03:55:30.904Z,6.05
2022-08-28T03:58:01.376Z,6.35
2022-08-28T04:00:31.556Z,6.28
2022-08-28T04:03:01.931Z,8.90
2022-08-28T04:05:32.408Z,9.73
2022-08-28T04:08:02.658Z,10.55
2022-08-28T04:10:35.166Z,7.22
2022-08-28T04:13:06.053Z,6.15
2022-08-28T04:15:36.963Z,6.07
2022-08-28T04:18:07.439Z,5.45
2022-08-28T04:20:37.734Z,6.32
2022-08-28T04:23:10.459Z,7.32
2022-08-28T04:25:44.469Z,6.53
2022-08-28T04:28:15.175Z,7.00
2022-08-28T04:30:45.495Z,7.47
2022-08-28T04:33:15.711Z,6.90
2022-08-28T04:35:45.911Z,6.38
2022-08-28T04:38:16.398Z,7.97
2022-08-28T04:40:46.781Z,7.55
2022-08-28T04:43:17.035Z,5.53
2022-08-28T04:45:48.874Z,4.25
2022-08-28T04:48:19.454Z,4.22
2022-08-28T04:50:51.986Z,3.08
2022-08-28T04:53:23.447Z,4.22
2022-08-28T04:55:55.438Z,4.68
2022-08-28T04:58:26.477Z,4.93
2022-08-28T05:00:57.523Z,4.03
2022-08-28T05:03:27.982Z,3.35
2022-08-28T05:05:58.264Z,4.18
2022-08-28T05:08:30.412Z,4.10
2022-08-28T05:11:12.736Z,5.00
2022-08-28T05:13:43.370Z,5.45
2022-08-28T05:16:14.351Z,2.13
2022-08-28T05:18:45.344Z,2.47
2022-08-28T05:21:22.320Z,3.63
2022-08-28T05:23:56.009Z,2.85
2022-08-28T05:26:28.439Z,3.88
2022-08-28T05:29:01.786Z,4.10
2022-08-28T05:31:34.109Z,5.85
2022-08-28T05:34:06.994Z,4.43
2022-08-28T05:36:40.507Z,4.53
2022-08-28T05:45:13.716Z,7.20
2022-08-28T05:47:45.652Z,6.82
2022-08-28T05:50:16.221Z,6.18
2022-08-28T05:52:47.357Z,7.75
2022-08-28T05:55:17.921Z,9.05
2022-08-28T05:57:48.429Z,9.07
2022-08-28T06:00:20.488Z,9.00
2022-08-28T06:05:13.032Z,7.05
2022-08-28T06:07:44.074Z,7.32
2022-08-28T06:10:20.261Z,3.97
2022-08-28T06:12:53.370Z,4.10
2022-08-28T06:15:23.640Z,5.32
2022-08-28T06:17:54.256Z,5.55
2022-08-28T06:20:26.560Z,5.40
2022-08-28T06:22:56.826Z,5.07
2022-08-28T06:25:27.209Z,4.18
2022-08-28T06:27:57.991Z,3.75
2022-08-28T06:30:28.278Z,3.53
2022-08-28T06:33:00.540Z,3.47
2022-08-28T06:35:30.796Z,6.20
2022-08-28T06:38:05.693Z,5.10
2022-08-28T06:40:42.719Z,3.85
2022-08-28T06:43:15.421Z,4.45
2022-08-28T06:45:56.805Z,3.83
2022-08-28T06:48:30.914Z,3.78
2022-08-28T06:51:04.944Z,3.50
2022-08-28T06:53:35.799Z,4.25
2022-08-28T06:56:11.317Z,3.08
2022-08-28T06:58:50.309Z,3.17
2022-08-28T07:01:29.398Z,3.08
2022-08-28T07:04:03.821Z,1.70
2022-08-28T07:06:37.364Z,2.30
2022-08-28T07:09:10.219Z,2.40
2022-08-28T07:11:42.094Z,2.42
2022-08-28T07:14:15.607Z,2.63
2022-08-28T07:16:46.977Z,2.40
2022-08-28T07:19:20.870Z,1.65
2022-08-28T07:21:54.331Z,2.38
2022-08-28T07:24:26.599Z,2.05
2022-08-28T07:26:59.846Z,1.77
2022-08-28T07:29:34.762Z,2.40
2022-08-28T07:32:06.186Z,2.03
2022-08-28T07:34:44.395Z,2.40
2022-08-28T07:37:15.494Z,2.43
2022-08-28T07:39:46.605Z,1.80
2022-08-28T07:42:48.711Z,2.20
2022-08-28T07:45:19.191Z,2.17
2022-08-28T07:47:52.614Z,2.00
2022-08-28T07:50:23.637Z,1.60
2022-08-28T07:52:54.415Z,2.25
2022-08-28T07:55:25.667Z,2.75
2022-08-28T07:57:56.243Z,2.95
2022-08-28T08:00:30.505Z,2.45
2022-08-28T08:03:01.234Z,2.53
2022-08-28T08:05:33.735Z,2.15
2022-08-28T08:08:04.622Z,3.10
2022-08-28T08:10:34.998Z,2.45
2022-08-28T08:13:05.473Z,3.78
2022-08-28T08:15:41.127Z,4.63
2022-08-28T08:18:12.367Z,3.58
2022-08-28T08:20:45.473Z,4.47
2022-08-28T08:23:16.024Z,5.15
2022-08-28T08:25:56.372Z,4.57
2022-08-28T08:28:26.663Z,2.95
2022-08-28T08:31:11.550Z,3.67
2022-08-28T08:33:45.008Z,3.90
2022-08-28T08:36:18.945Z,3.22
2022-08-28T08:38:50.421Z,2.85
2022-08-28T08:41:50.398Z,3.75
2022-08-28T08:44:41.206Z,4.15
2022-08-28T08:47:26.700Z,3.60
2022-08-28T08:50:06.620Z,4.03
2022-08-28T08:53:01.023Z,3.08
2022-08-28T08:55:40.955Z,3.30
2022-08-28T08:58:24.923Z,3.35
2022-08-28T09:01:06.527Z,2.88
2022-08-28T09:04:06.329Z,4.15
2022-08-28T09:06:57.422Z,3.05
2022-08-28T09:09:37.975Z,2.95
2022-08-28T09:12:12.001Z,3.30
2022-08-28T09:15:13.444Z,3.05
2022-08-28T09:17:55.251Z,4.20
2022-08-28T09:20:32.920Z,4.80
2022-08-28T09:23:12.336Z,3.70
2022-08-28T09:28:32.313Z,3.42
2022-08-28T09:31:11.402Z,3.00
2022-08-28T09:33:53.340Z,2.05
2022-08-28T09:36:34.285Z,1.77
2022-08-28T09:39:32.020Z,2.33
2022-08-28T09:42:35.516Z,2.50
2022-08-28T09:45:20.664Z,1.83
2022-08-28T09:47:57.703Z,1.95
2022-08-28T09:50:40.777Z,1.63
2022-08-28T09:53:23.414Z,2.05
2022-08-28T09:56:13.155Z,1.92
2022-08-28T09:59:02.406Z,1.58
2022-08-28T10:01:53.727Z,2.28
2022-08-28T10:04:46.639Z,2.03
2022-08-28T10:07:36.169Z,2.50
2022-08-28T10:10:29.668Z,2.28
2022-08-28T10:13:29.588Z,2.22
2022-08-28T10:16:28.708Z,2.60
2022-08-28T10:19:21.263Z,2.88
2022-08-28T10:22:22.215Z,1.80
2022-08-28T10:25:10.777Z,4.18
2022-08-28T10:28:01.174Z,2.47
2022-08-28T10:30:36.015Z,3.00
2022-08-28T10:33:31.915Z,2.70
2022-08-28T10:36:33.563Z,1.85
2022-08-28T10:39:32.795Z,2.67
2022-08-28T10:42:07.521Z,3.05
2022-08-28T10:45:06.582Z,2.33
2022-08-28T10:47:41.436Z,2.15
2022-08-28T10:50:21.392Z,2.33
2022-08-28T10:53:03.044Z,2.95
2022-08-28T10:55:40.053Z,2.33
2022-08-28T10:58:24.934Z,2.00
2022-08-28T11:01:03.301Z,6.03
2022-08-28T11:03:41.435Z,4.85
2022-08-28T11:06:38.235Z,5.35
2022-08-28T11:09:31.911Z,5.30
2022-08-28T11:12:09.241Z,5.78
2022-08-28T11:14:48.459Z,5.60
2022-08-28T11:20:27.110Z,6.40
2022-08-28T11:23:12.685Z,6.00
2022-08-28T11:25:52.871Z,4.93
2022-08-28T11:28:53.715Z,5.47
2022-08-28T11:31:34.983Z,5.05
2022-08-28T11:34:07.901Z,3.95
2022-08-28T11:37:00.204Z,5.53
2022-08-28T11:39:34.083Z,6.70
2022-08-28T11:42:42.823Z,6.00
2022-08-28T11:45:24.085Z,6.73
2022-08-28T11:47:58.692Z,7.28
2022-08-28T11:50:35.845Z,8.50
2022-08-28T11:53:25.978Z,6.95
2022-08-28T11:56:29.061Z,7.65
2022-08-28T11:59:35.687Z,6.72
2022-08-28T12:02:46.143Z,6.97
2022-08-28T12:05:39.305Z,6.00
2022-08-28T12:08:12.233Z,5.38
2022-08-28T12:10:58.364Z,6.20
2022-08-28T12:13:49.624Z,5.85
2022-08-28T12:16:20.893Z,6.05
2022-08-28T12:19:27.703Z,5.65
2022-08-28T12:21:58.920Z,5.32
2022-08-28T12:24:30.784Z,5.63
2022-08-28T12:27:01.450Z,5.28
2022-08-28T12:30:10.599Z,5.20
2022-08-28T12:32:59.014Z,6.05
2022-08-28T12:35:32.977Z,5.13
2022-08-28T12:38:07.801Z,5.47
2022-08-28T12:40:57.958Z,6.68
2022-08-28T12:43:43.260Z,7.65
2022-08-28T12:46:46.536Z,6.27
2022-08-28T12:54:38.750Z,7.78
2022-08-28T12:57:14.256Z,7.68
2022-08-28T12:59:49.211Z,7.20
2022-08-28T13:02:36.619Z,6.47
2022-08-28T13:05:14.579Z,7.00
2022-08-28T13:07:51.886Z,9.65
2022-08-28T13:10:50.980Z,10.80
2022-08-28T13:13:42.263Z,11.13
2022-08-28T13:16:15.326Z,12.80
2022-08-28T13:19:10.207Z,11.82
2022-08-28T13:22:02.506Z,12.85
2022-08-28T13:24:50.698Z,12.35
2022-08-28T13:27:25.763Z,13.50
2022-08-28T13:30:33.252Z,13.98
2022-08-28T13:33:21.355Z,14.52
2022-08-28T13:35:52.889Z,15.43
2022-08-28T13:38:25.345Z,13.73
2022-08-28T13:41:14.380Z,12.40
2022-08-28T13:43:47.982Z,12.05
2022-08-28T13:46:19.448Z,11.00
2022-08-28T13:48:49.951Z,11.88
2022-08-28T13:51:23.402Z,10.35
2022-08-28T13:53:55.070Z,11.02
2022-08-28T13:56:26.931Z,10.20
2022-08-28T13:58:57.645Z,9.15
2022-08-28T14:01:48.608Z,9.90
2022-08-28T14:04:19.150Z,10.55
2022-08-28T14:06:49.484Z,9.43
2022-08-28T14:09:19.980Z,10.60
2022-08-28T14:11:52.524Z,9.50
2022-08-28T14:14:22.863Z,11.93
2022-08-28T14:16:56.606Z,9.57
2022-08-28T14:19:26.940Z,10.80
2022-08-28T14:21:59.528Z,10.48
2022-08-28T14:24:30.801Z,10.88
2022-08-28T14:27:01.923Z,10.32
2022-08-28T14:29:33.534Z,6.97
2022-08-28T14:32:04.252Z,7.57
2022-08-28T14:34:34.776Z,7.85
2022-08-28T14:37:05.793Z,7.70
2022-08-28T14:39:36.838Z,6.60
2022-08-28T14:42:12.996Z,5.90
2022-08-28T14:44:43.863Z,7.72
2022-08-28T14:47:14.402Z,6.43
2022-08-28T14:49:44.938Z,5.93
2022-08-28T14:52:15.890Z,5.03
2022-08-28T14:54:46.112Z,4.57
2022-08-28T14:57:17.157Z,4.22
2022-08-28T14:59:47.456Z,5.38
2022-08-28T15:02:17.864Z,4.43
2022-08-28T15:04:49.377Z,5.40
2022-08-28T15:07:20.191Z,3.78
2022-08-28T15:09:50.886Z,4.15
2022-08-28T15:12:21.919Z,4.53
2022-08-28T15:14:56.860Z,5.07
2022-08-28T15:17:33.532Z,4.78
2022-08-28T15:20:06.201Z,5.80
2022-08-28T15:22:36.635Z,5.07
2022-08-28T15:25:08.125Z,4.78
2022-08-28T15:27:38.690Z,4.70
2022-08-28T15:30:09.784Z,5.68
2022-08-28T15:32:40.215Z,5.60
2022-08-28T15:35:11.037Z,5.80
2022-08-28T15:37:41.340Z,6.03
2022-08-28T15:40:24.709Z,6.30
2022-08-28T15:42:55.197Z,5.82
2022-08-28T15:45:25.656Z,7.07
2022-08-28T15:47:56.433Z,7.15
2022-08-28T15:50:26.968Z,7.25
2022-08-28T15:52:57.282Z,8.27
2022-08-28T15:55:29.628Z,8.52
2022-08-28T15:58:00.208Z,8.85
2022-08-28T16:00:31.047Z,7.10
2022-08-28T16:03:03.214Z,7.22
2022-08-28T16:05:39.577Z,7.63
2022-08-28T16:08:12.510Z,7.85
2022-08-28T16:10:43.197Z,8.27
2022-08-28T16:13:13.639Z,9.48
2022-08-28T16:15:44.579Z,9.68
2022-08-28T16:18:16.569Z,9.40
2022-08-28T16:20:48.639Z,9.68
2022-08-28T16:23:19.102Z,10.55
2022-08-28T16:25:49.646Z,7.93
2022-08-28T16:28:19.944Z,9.00
2022-08-28T16:30:50.406Z,8.77
2022-08-28T16:33:22.427Z,9.50
2022-08-28T16:35:56.069Z,9.98
2022-08-28T16:38:28.437Z,9.60
2022-08-28T16:40:59.291Z,9.25
2022-08-28T16:43:31.014Z,10.63
2022-08-28T16:46:01.818Z,8.82
2022-08-28T16:48:33.310Z,8.82
2022-08-28T16:51:03.595Z,7.50
2022-08-28T16:53:34.380Z,7.97
2022-08-28T16:56:05.428Z,7.55
2022-08-28T16:58:36.718Z,6.30
2022-08-28T17:01:08.478Z,7.15
2022-08-28T17:03:42.656Z,7.45
2022-08-28T17:06:18.373Z,7.82
2022-08-28T17:08:49.903Z,9.02
2022-08-28T17:11:22.256Z,8.13
2022-08-28T17:13:52.605Z,9.25
2022-08-28T17:16:24.841Z,8.13
2022-08-28T17:18:55.723Z,8.23
2022-08-28T17:21:45.670Z,8.07
2022-08-28T17:29:17.995Z,7.50
2022-08-28T17:31:48.769Z,8.02
2022-08-28T17:34:20.469Z,6.93
2022-08-28T17:36:51.341Z,7.03
2022-08-28T17:39:23.511Z,8.07
2022-08-28T17:41:54.015Z,7.50
2022-08-28T17:44:24.463Z,6.60
2022-08-28T17:46:55.013Z,8.30
2022-08-28T17:49:25.633Z,8.55
2022-08-28T17:51:56.341Z,8.73
2022-08-28T17:54:26.888Z,6.78
2022-08-28T17:56:58.156Z,7.63
2022-08-28T17:59:29.847Z,8.40
2022-08-28T18:02:00.260Z,7.57
2022-08-28T18:04:31.138Z,7.50
2022-08-28T18:07:01.474Z,8.20
2022-08-28T18:09:32.093Z,7.65
2022-08-28T18:12:02.351Z,8.32
2022-08-28T18:14:33.375Z,8.70
2022-08-28T18:17:03.768Z,5.95
2022-08-28T18:19:34.150Z,6.55
2022-08-28T18:22:04.551Z,5.90
2022-08-28T18:24:34.939Z,5.72
2022-08-28T18:27:06.431Z,6.78
2022-08-28T18:29:38.714Z,5.60
2022-08-28T18:32:10.134Z,7.35
2022-08-28T18:34:40.385Z,6.30
2022-08-28T18:37:10.751Z,6.88
2022-08-28T18:39:42.266Z,6.88
2022-08-28T18:42:14.613Z,5.38
2022-08-28T18:44:45.069Z,5.55
2022-08-28T18:47:16.118Z,6.53
2022-08-28T18:49:46.517Z,5.68
2022-08-28T18:52:16.956Z,5.78
2022-08-28T18:54:47.479Z,4.85
2022-08-28T18:57:20.596Z,5.60
2022-08-28T18:59:55.760Z,5.13
2022-08-28T19:02:26.467Z,5.63
2022-08-28T19:04:57.102Z,5.20
2022-08-28T19:07:27.512Z,5.13
2022-08-28T19:10:00.183Z,5.40
2022-08-28T19:12:30.714Z,6.25
2022-08-28T19:15:01.984Z,5.97
2022-08-28T19:17:32.463Z,5.95
2022-08-28T19:20:10.544Z,6.07
2022-08-28T19:22:41.342Z,6.45
2022-08-28T19:25:27.893Z,6.43
2022-08-28T19:28:00.954Z,5.50
2022-08-28T19:30:36.547Z,7.00
2022-08-28T19:33:08.234Z,6.18
2022-08-28T19:35:38.971Z,5.93
2022-08-28T19:38:09.285Z,6.18
2022-08-28T19:40:41.929Z,7.15
2022-08-28T19:43:14.094Z,5.78
2022-08-28T19:45:48.291Z,5.75
2022-08-28T19:48:18.930Z,6.72
2022-08-28T19:50:49.683Z,6.32
2022-08-28T19:53:19.962Z,7.40
2022-08-28T19:55:51.073Z,6.10
2022-08-28T19:58:21.363Z,6.18
2022-08-28T20:00:51.650Z,6.05
2022-08-28T20:03:23.564Z,4.95
2022-08-28T20:05:54.338Z,5.28
2022-08-28T20:08:26.024Z,4.97
2022-08-28T20:10:56.365Z,5.70
2022-08-28T20:13:26.887Z,5.75
2022-08-28T20:15:57.233Z,4.72
2022-08-28T20:18:28.314Z,5.88
2022-08-28T20:20:59.370Z,6.40
2022-08-28T20:23:29.714Z,6.38
2022-08-28T20:26:00.009Z,5.38
2022-08-28T20:28:30.609Z,6.22
2022-08-28T20:31:01.504Z,6.68
2022-08-28T20:33:31.873Z,5.60
2022-08-28T20:36:07.516Z,6.85
2022-08-28T20:38:45.983Z,7.10
2022-08-28T20:41:20.259Z,5.78
2022-08-28T20:43:51.258Z,7.82
2022-08-28T20:46:21.743Z,5.95
2022-08-28T20:48:52.026Z,6.32
2022-08-28T20:51:41.768Z,6.70
2022-08-28T20:54:12.163Z,7.15
2022-08-28T20:56:42.496Z,7.07
2022-08-28T20:59:12.958Z,6.70
2022-08-28T21:01:43.857Z,7.85
2022-08-28T21:04:14.264Z,7.40
2022-08-28T21:06:48.512Z,7.18
2022-08-28T21:09:19.815Z,6.60
2022-08-28T21:11:50.108Z,7.53
2022-08-28T21:14:21.898Z,7.10
2022-08-28T21:16:52.443Z,6.60
2022-08-28T21:19:22.876Z,7.90
2022-08-28T21:21:54.241Z,6.47
2022-08-28T21:24:24.608Z,8.35
2022-08-28T21:26:55.738Z,6.93
2022-08-28T21:29:27.297Z,6.95
2022-08-28T21:31:57.538Z,7.35
2022-08-28T21:34:27.957Z,7.53
2022-08-28T21:36:58.230Z,8.15
2022-08-28T21:39:28.489Z,8.30
2022-08-28T21:41:59.716Z,8.25
2022-08-28T21:44:30.111Z,8.30
2022-08-28T21:47:02.710Z,7.68
2022-08-28T21:49:32.989Z,7.53
2022-08-28T21:52:06.032Z,7.57
2022-08-28T21:54:36.301Z,7.45
2022-08-28T21:57:06.708Z,7.68
2022-08-28T21:59:37.876Z,8.85
2022-08-28T22:02:09.443Z,7.05
2022-08-28T22:04:39.757Z,7.97
2022-08-28T22:07:13.234Z,7.32
2022-08-28T22:09:44.093Z,7.30
2022-08-28T22:12:14.720Z,8.25
2022-08-28T22:14:45.009Z,7.95
2022-08-28T22:17:17.068Z,7.95
2022-08-28T22:19:47.339Z,8.07
2022-08-28T22:22:28.812Z,8.13
2022-08-28T22:24:59.135Z,7.72
2022-08-28T22:27:29.928Z,7.25
2022-08-28T22:30:00.424Z,8.23
2022-08-28T22:32:30.846Z,7.57
2022-08-28T22:35:01.153Z,9.27
2022-08-28T22:37:31.436Z,8.57
2022-08-28T22:40:01.829Z,9.40
2022-08-28T22:42:34.530Z,9.45
2022-08-28T22:45:09.756Z,8.38
2022-08-28T22:47:40.200Z,8.65
2022-08-28T22:50:11.987Z,9.50
2022-08-28T22:52:45.186Z,8.82
2022-08-28T22:55:17.729Z,9.07
2022-08-28T22:57:49.715Z,8.60
2022-08-28T23:00:26.104Z,8.57
2022-08-28T23:02:57.835Z,8.13
2022-08-28T23:05:30.299Z,9.07
2022-08-28T23:08:00.537Z,8.95
2022-08-28T23:10:55.136Z,8.52
2022-08-28T23:13:22.287Z,8.35
2022-08-28T23:15:53.731Z,9.68
2022-08-28T23:18:24.332Z,9.30
2022-08-28T23:20:54.795Z,10.27
2022-08-28T23:23:25.458Z,10.60
2022-08-28T23:25:55.831Z,8.15
2022-08-28T23:28:26.336Z,11.10
2022-08-28T23:30:57.018Z,8.85
2022-08-28T23:33:28.838Z,9.10
2022-08-28T23:35:59.190Z,8.98
2022-08-28T23:38:29.494Z,9.75
2022-08-28T23:41:00.028Z,9.07
2022-08-28T23:43:30.305Z,9.02
2022-08-28T23:46:00.989Z,7.38
2022-08-28T23:48:32.970Z,7.82
2022-08-28T23:51:03.471Z,8.10
2022-08-28T23:53:35.478Z,25.15
2022-08-28T23:56:06.198Z,17.95
2022-08-28T23:58:37.150Z,10.07
